Terminal Aerodrome Forecast
Issued by NWS Albany, NY

Home | Current Version | Previous Version | Text Only | Print | Product List | Glossary On
Versions: 1 2 3 4 5 6 7 8 9 10 11 12 13 14 15 16 17
658
FTUS41 KALY 241316 AAA
TAFGFL
TAF AMD
KGFL 241316Z 2413/2512 06006KT P6SM FEW005 SCT250
      TEMPO 2413/2414 BKN005
     FM241600 08005KT P6SM BKN250
     FM250000 00000KT P6SM SCT120 BKN250
     FM251000 18004KT P6SM BKN120 BKN250=

USA.gov is the U.S. government's official web portal to all federal, state and local government web resources and services.